createdAt,value
2018-07-09T00:01:47.653Z,16.39
2018-07-09T00:02:47.492Z,16.34
2018-07-09T00:04:40.236Z,16.39
2018-07-09T00:05:40.136Z,16.32
2018-07-09T00:07:33.012Z,16.29
2018-07-09T00:08:32.906Z,16.25
2018-07-09T00:10:25.750Z,16.21
2018-07-09T00:11:25.630Z,16.21
2018-07-09T00:13:18.390Z,16.24
2018-07-09T00:14:18.289Z,16.29
2018-07-09T00:16:11.123Z,16.21
2018-07-09T00:17:11.033Z,16.14
2018-07-09T00:19:03.797Z,16.10
2018-07-09T00:20:03.689Z,16.13
2018-07-09T00:21:56.542Z,16.09
2018-07-09T00:22:56.430Z,16.09
2018-07-09T00:24:49.335Z,16.02
2018-07-09T00:25:49.226Z,15.96
2018-07-09T00:27:42.030Z,15.90
2018-07-09T00:28:41.921Z,15.88
2018-07-09T00:30:34.883Z,15.95
2018-07-09T00:31:34.669Z,15.90
2018-07-09T00:33:27.551Z,15.90
2018-07-09T00:34:27.436Z,15.88
2018-07-09T00:36:20.304Z,15.83
2018-07-09T00:37:20.173Z,15.78
2018-07-09T00:39:13.050Z,15.81
2018-07-09T00:40:12.928Z,15.72
2018-07-09T00:42:05.809Z,15.68
2018-07-09T00:43:05.667Z,15.62
2018-07-09T00:44:58.433Z,15.56
2018-07-09T00:45:58.322Z,15.56
2018-07-09T00:47:51.161Z,15.56
2018-07-09T00:48:51.075Z,15.58
2018-07-09T00:50:43.947Z,15.51
2018-07-09T00:51:43.734Z,15.48
2018-07-09T00:53:36.578Z,15.47
2018-07-09T00:54:36.466Z,15.41
2018-07-09T00:56:29.225Z,15.43
2018-07-09T00:57:29.127Z,15.35
2018-07-09T00:59:21.966Z,15.23
2018-07-09T01:00:21.877Z,15.29
2018-07-09T01:02:14.620Z,15.25
2018-07-09T01:03:14.512Z,15.23
2018-07-09T01:05:07.350Z,15.22
2018-07-09T01:06:07.254Z,15.25
2018-07-09T01:08:00.034Z,15.20
2018-07-09T01:08:59.908Z,15.17
2018-07-09T01:10:52.783Z,15.20
2018-07-09T01:11:52.672Z,15.22
2018-07-09T01:13:45.560Z,15.17
2018-07-09T01:14:45.446Z,15.22
2018-07-09T01:16:38.260Z,15.17
2018-07-09T01:17:38.155Z,15.05
2018-07-09T01:19:32.068Z,14.97
2018-07-09T01:20:30.910Z,14.93
2018-07-09T01:22:23.661Z,14.93
2018-07-09T01:23:23.553Z,14.99
2018-07-09T01:25:16.409Z,15.03
2018-07-09T01:26:16.359Z,14.89
2018-07-09T01:28:09.196Z,14.86
2018-07-09T01:29:09.052Z,14.95
2018-07-09T01:31:01.945Z,14.95
2018-07-09T01:32:01.800Z,14.83
2018-07-09T01:33:55.559Z,14.77
2018-07-09T01:34:54.608Z,14.69
2018-07-09T01:36:47.400Z,14.71
2018-07-09T01:37:47.293Z,14.70
2018-07-09T01:39:40.226Z,14.70
2018-07-09T01:40:40.189Z,14.64
2018-07-09T01:42:32.812Z,14.64
2018-07-09T01:43:32.703Z,14.51
2018-07-09T01:45:25.576Z,14.46
2018-07-09T01:46:25.482Z,14.52
2018-07-09T01:48:18.337Z,14.51
2018-07-09T01:49:18.201Z,14.51
2018-07-09T01:51:11.038Z,14.45
2018-07-09T01:52:10.945Z,14.41
2018-07-09T01:54:03.716Z,14.37
2018-07-09T01:55:03.607Z,14.34
2018-07-09T01:56:56.847Z,14.40
2018-07-09T01:57:56.759Z,14.30
2018-07-09T01:59:49.514Z,14.22
2018-07-09T02:00:49.403Z,14.28
2018-07-09T02:02:42.279Z,14.27
2018-07-09T02:03:42.162Z,14.23
2018-07-09T02:05:34.921Z,14.27
2018-07-09T02:06:34.815Z,14.30
2018-07-09T02:08:27.545Z,14.23
2018-07-09T02:09:27.447Z,14.21
2018-07-09T02:11:20.291Z,14.23
2018-07-09T02:12:20.215Z,14.15
2018-07-09T02:14:12.966Z,14.22
2018-07-09T02:15:12.836Z,14.08
2018-07-09T02:17:05.689Z,14.11
2018-07-09T02:18:05.490Z,14.12
2018-07-09T02:19:58.262Z,14.12
2018-07-09T02:20:58.137Z,14.15
2018-07-09T02:22:51.033Z,14.08
2018-07-09T02:23:50.884Z,14.08
2018-07-09T02:25:43.749Z,14.03
2018-07-09T02:26:43.673Z,14.04
2018-07-09T02:28:36.505Z,14.01
2018-07-09T02:29:36.464Z,13.91
2018-07-09T02:31:29.268Z,13.75
2018-07-09T02:32:29.279Z,13.96
2018-07-09T02:34:22.402Z,13.85
2018-07-09T02:35:22.352Z,13.73
2018-07-09T02:37:15.159Z,13.67
2018-07-09T02:38:15.103Z,13.65
2018-07-09T02:40:07.811Z,13.68
2018-07-09T02:41:07.696Z,13.68
2018-07-09T02:43:00.580Z,13.72
2018-07-09T02:44:00.448Z,13.73
2018-07-09T02:45:53.213Z,13.75
2018-07-09T02:46:53.097Z,13.76
2018-07-09T02:48:45.938Z,13.80
2018-07-09T02:49:45.747Z,13.80
2018-07-09T02:51:38.505Z,13.88
2018-07-09T02:52:38.382Z,13.93
2018-07-09T02:54:31.238Z,13.94
2018-07-09T02:55:31.157Z,13.94
2018-07-09T02:57:23.911Z,13.91
2018-07-09T02:58:23.770Z,13.80
2018-07-09T03:00:16.527Z,13.85
2018-07-09T03:01:16.498Z,13.85
2018-07-09T03:03:09.297Z,13.73
2018-07-09T03:04:09.204Z,13.68
2018-07-09T03:06:01.936Z,13.78
2018-07-09T03:07:01.827Z,13.79
2018-07-09T03:08:54.576Z,13.80
2018-07-09T03:09:54.487Z,13.75
2018-07-09T03:11:47.318Z,13.78
2018-07-09T03:12:47.222Z,13.82
2018-07-09T03:14:39.974Z,13.85
2018-07-09T03:15:39.861Z,13.80
2018-07-09T03:17:32.604Z,13.80
2018-07-09T03:18:32.518Z,13.90
2018-07-09T03:20:25.367Z,13.91
2018-07-09T03:21:25.274Z,13.96
2018-07-09T03:23:18.034Z,14.04
2018-07-09T03:24:18.190Z,14.09
2018-07-09T03:26:10.771Z,14.03
2018-07-09T03:27:10.668Z,14.08
2018-07-09T03:29:04.500Z,14.15
2018-07-09T03:30:04.379Z,14.18
2018-07-09T03:31:57.724Z,14.30
2018-07-09T03:32:56.976Z,14.34
2018-07-09T03:34:49.769Z,14.38
2018-07-09T03:35:49.647Z,14.30
2018-07-09T03:37:42.486Z,14.31
2018-07-09T03:38:42.387Z,14.21
2018-07-09T03:40:35.229Z,14.31
2018-07-09T03:41:35.154Z,14.30
2018-07-09T03:43:28.389Z,14.26
2018-07-09T03:44:28.304Z,14.26
2018-07-09T03:46:21.155Z,14.33
2018-07-09T03:47:21.187Z,14.23
2018-07-09T03:49:13.802Z,14.37
2018-07-09T03:50:13.710Z,14.40
2018-07-09T03:52:06.441Z,14.45
2018-07-09T03:53:06.346Z,14.48
2018-07-09T03:54:59.100Z,14.49
2018-07-09T03:55:58.987Z,14.33
2018-07-09T03:57:51.717Z,14.34
2018-07-09T03:58:51.628Z,14.37
2018-07-09T04:00:44.378Z,14.48
2018-07-09T04:01:44.268Z,14.48
2018-07-09T04:03:37.547Z,14.61
2018-07-09T04:04:37.481Z,14.63
2018-07-09T04:06:30.706Z,14.69
2018-07-09T04:07:30.729Z,14.70
2018-07-09T04:09:23.346Z,14.73
2018-07-09T04:10:23.246Z,14.56
2018-07-09T04:12:15.979Z,14.67
2018-07-09T04:13:15.883Z,14.64
2018-07-09T04:15:09.146Z,14.69
2018-07-09T04:16:09.069Z,14.71
2018-07-09T04:18:01.814Z,14.64
2018-07-09T04:19:01.705Z,14.70
2018-07-09T04:20:54.583Z,14.82
2018-07-09T04:21:54.340Z,14.74
2018-07-09T04:23:47.191Z,14.85
2018-07-09T04:24:47.100Z,14.77
2018-07-09T04:26:39.955Z,14.82
2018-07-09T04:27:39.842Z,14.96
2018-07-09T04:29:32.605Z,14.95
2018-07-09T04:30:32.490Z,14.95
2018-07-09T04:32:25.732Z,14.87
2018-07-09T04:33:25.637Z,14.82
2018-07-09T04:35:18.505Z,14.90
2018-07-09T04:36:18.389Z,14.86
2018-07-09T04:38:11.129Z,14.90
2018-07-09T04:39:11.031Z,14.87
2018-07-09T04:41:03.899Z,14.77
2018-07-09T04:42:03.754Z,14.74
2018-07-09T04:43:56.447Z,14.79
2018-07-09T04:44:56.329Z,14.83
2018-07-09T04:46:49.195Z,14.89
2018-07-09T04:47:48.982Z,14.87
2018-07-09T04:49:41.846Z,14.77
2018-07-09T04:50:41.743Z,14.82
2018-07-09T04:52:34.570Z,14.82
2018-07-09T04:53:34.555Z,14.83
2018-07-09T04:55:27.248Z,14.79
2018-07-09T04:56:27.142Z,14.66
2018-07-09T04:58:19.884Z,14.67
2018-07-09T04:59:19.772Z,14.69
2018-07-09T05:01:13.066Z,14.74
2018-07-09T05:02:12.513Z,14.71
2018-07-09T05:04:05.358Z,14.78
2018-07-09T05:05:05.195Z,14.85
2018-07-09T05:06:58.032Z,14.77
2018-07-09T05:07:57.916Z,14.86
2018-07-09T05:09:50.857Z,14.85
2018-07-09T05:10:50.575Z,14.78
2018-07-09T05:12:43.429Z,14.83
2018-07-09T05:13:43.237Z,14.86
2018-07-09T05:15:36.591Z,14.87
2018-07-09T05:16:35.963Z,14.87
2018-07-09T05:18:28.846Z,14.96
2018-07-09T05:19:28.719Z,14.89
2018-07-09T05:21:21.550Z,15.20
2018-07-09T05:22:21.472Z,15.25
2018-07-09T05:24:14.346Z,15.26
2018-07-09T05:25:14.213Z,15.26
2018-07-09T05:27:07.061Z,15.23
2018-07-09T05:28:06.987Z,15.22
2018-07-09T05:29:59.852Z,15.22
2018-07-09T05:30:59.636Z,15.19
2018-07-09T05:32:52.448Z,15.15
2018-07-09T05:33:52.368Z,15.20
2018-07-09T05:35:45.110Z,15.04
2018-07-09T05:36:45.038Z,15.15
2018-07-09T05:38:37.769Z,15.20
2018-07-09T05:39:37.657Z,15.35
2018-07-09T05:41:30.428Z,15.36
2018-07-09T05:42:30.293Z,15.40
2018-07-09T05:44:23.150Z,15.54
2018-07-09T05:45:23.066Z,15.62
2018-07-09T05:47:16.421Z,15.66
2018-07-09T05:48:15.695Z,15.65
2018-07-09T05:50:08.539Z,15.43
2018-07-09T05:51:08.437Z,15.52
2018-07-09T05:53:01.215Z,15.59
2018-07-09T05:54:01.106Z,15.52
2018-07-09T05:55:53.828Z,15.52
2018-07-09T05:56:53.739Z,15.54
2018-07-09T05:58:46.653Z,15.58
2018-07-09T05:59:46.480Z,15.66
2018-07-09T06:01:39.258Z,15.56
2018-07-09T06:02:39.130Z,15.59
2018-07-09T06:04:32.003Z,15.56
2018-07-09T06:05:31.794Z,15.48
2018-07-09T06:07:26.651Z,15.30
2018-07-09T06:08:25.585Z,15.25
2018-07-09T06:10:18.441Z,15.43
2018-07-09T06:11:18.365Z,15.44
2018-07-09T06:13:11.042Z,15.50
2018-07-09T06:14:10.969Z,15.51
2018-07-09T06:16:03.928Z,15.44
2018-07-09T06:17:03.698Z,15.40
2018-07-09T06:18:56.460Z,15.40
2018-07-09T06:19:56.363Z,15.44
2018-07-09T06:21:49.107Z,15.30
2018-07-09T06:22:48.996Z,15.35
2018-07-09T06:24:41.750Z,15.38
2018-07-09T06:25:41.663Z,15.54
2018-07-09T06:27:34.422Z,15.38
2018-07-09T06:28:34.289Z,15.45
2018-07-09T06:30:27.028Z,15.41
2018-07-09T06:31:26.935Z,15.33
2018-07-09T06:33:19.810Z,15.26
2018-07-09T06:34:19.709Z,15.26
2018-07-09T06:36:12.541Z,15.40
2018-07-09T06:37:12.333Z,15.29
2018-07-09T06:39:05.115Z,15.45
2018-07-09T06:40:04.976Z,15.56
2018-07-09T06:41:57.823Z,15.65
2018-07-09T06:42:57.788Z,15.77
2018-07-09T06:44:50.523Z,15.88
2018-07-09T06:45:50.372Z,15.98
2018-07-09T06:47:43.227Z,16.13
2018-07-09T06:48:43.122Z,16.03
2018-07-09T06:50:35.891Z,16.00
2018-07-09T06:51:35.788Z,16.08
2018-07-09T06:53:28.615Z,16.08
2018-07-09T06:54:28.525Z,16.00
2018-07-09T06:56:21.418Z,16.08
2018-07-09T06:57:21.274Z,16.09
2018-07-09T06:59:14.130Z,16.10
2018-07-09T07:00:14.057Z,16.18
2018-07-09T07:02:07.446Z,16.13
2018-07-09T07:03:07.326Z,16.25
2018-07-09T07:05:00.137Z,16.22
2018-07-09T07:06:00.031Z,16.28
2018-07-09T07:07:52.935Z,16.21
2018-07-09T07:08:52.886Z,16.36
2018-07-09T07:10:45.528Z,16.55
2018-07-09T07:11:45.435Z,16.55
2018-07-09T07:13:38.315Z,16.72
2018-07-09T07:14:38.214Z,16.79
2018-07-09T07:16:31.072Z,16.83
2018-07-09T07:17:30.935Z,16.83
2018-07-09T07:19:24.211Z,16.84
2018-07-09T07:20:24.100Z,16.91
2018-07-09T07:22:16.932Z,16.95
2018-07-09T07:23:16.833Z,16.95
2018-07-09T07:25:09.736Z,16.84
2018-07-09T07:26:09.580Z,16.76
2018-07-09T07:28:02.328Z,16.91
2018-07-09T07:29:02.250Z,16.99
2018-07-09T07:30:55.013Z,17.13
2018-07-09T07:31:54.880Z,17.28
2018-07-09T07:33:47.738Z,17.37
2018-07-09T07:34:47.649Z,17.54
2018-07-09T07:36:40.916Z,17.47
2018-07-09T07:37:40.807Z,17.47
2018-07-09T07:39:34.040Z,17.52
2018-07-09T07:40:33.948Z,17.75
2018-07-09T07:42:26.814Z,17.62
2018-07-09T07:43:26.700Z,17.66
2018-07-09T07:45:19.562Z,17.68
2018-07-09T07:46:19.456Z,17.72
2018-07-09T07:48:12.325Z,17.75
2018-07-09T07:49:12.193Z,17.73
2018-07-09T07:51:05.042Z,17.83
2018-07-09T07:52:04.843Z,17.76
2018-07-09T07:53:57.703Z,17.83
2018-07-09T07:54:57.611Z,17.96
2018-07-09T07:56:50.342Z,17.97
2018-07-09T07:57:50.254Z,18.01
2018-07-09T07:59:43.004Z,17.94
2018-07-09T08:00:42.909Z,17.99
2018-07-09T08:02:35.731Z,18.26
2018-07-09T08:03:35.643Z,18.33
2018-07-09T08:05:28.507Z,18.39
2018-07-09T08:06:28.426Z,18.46
2018-07-09T08:08:21.276Z,18.61
2018-07-09T08:09:21.211Z,18.64
2018-07-09T08:11:13.929Z,18.71
2018-07-09T08:13:00.531Z,18.58
2018-07-09T08:14:06.645Z,18.78
2018-07-09T08:15:06.547Z,18.68
2018-07-09T08:16:59.391Z,18.89
2018-07-09T08:17:59.320Z,18.98
2018-07-09T08:19:52.239Z,19.15
2018-07-09T08:20:52.031Z,19.20
2018-07-09T08:22:44.872Z,19.04
2018-07-09T08:23:44.803Z,18.97
2018-07-09T08:25:37.657Z,18.83
2018-07-09T08:26:37.435Z,18.91
2018-07-09T08:28:30.291Z,18.89
2018-07-09T08:29:30.226Z,19.05
2018-07-09T08:31:23.219Z,19.05
2018-07-09T08:32:22.940Z,19.01
2018-07-09T08:34:15.701Z,19.05
2018-07-09T08:35:15.589Z,19.16
2018-07-09T08:37:08.421Z,19.26
2018-07-09T08:38:08.355Z,19.16
2018-07-09T08:40:01.182Z,19.16
2018-07-09T08:41:01.077Z,19.15
2018-07-09T08:42:53.935Z,19.20
2018-07-09T08:43:53.827Z,19.27
2018-07-09T08:45:46.700Z,19.44
2018-07-09T08:46:46.587Z,19.38
2018-07-09T08:48:39.417Z,19.56
2018-07-09T08:49:39.337Z,19.71
2018-07-09T08:51:32.599Z,19.64
2018-07-09T08:52:32.508Z,19.68
2018-07-09T08:54:25.352Z,19.78
2018-07-09T08:55:25.325Z,20.00
2018-07-09T08:57:18.518Z,20.07
2018-07-09T08:58:18.465Z,20.14
2018-07-09T09:00:11.310Z,20.17
2018-07-09T09:01:11.145Z,20.17
2018-07-09T09:03:04.007Z,20.33
2018-07-09T09:04:03.891Z,20.33
2018-07-09T09:05:56.846Z,20.30
2018-07-09T09:06:56.642Z,20.34
2018-07-09T09:08:49.508Z,20.36
2018-07-09T09:09:49.391Z,20.42
2018-07-09T09:11:42.261Z,20.44
2018-07-09T09:12:42.149Z,20.55
2018-07-09T09:14:35.447Z,20.42
2018-07-09T09:15:35.304Z,20.48
2018-07-09T09:17:29.600Z,20.58
2018-07-09T09:18:30.316Z,20.74
2018-07-09T09:20:22.755Z,20.75
2018-07-09T09:21:22.667Z,20.67
2018-07-09T09:23:15.935Z,20.65
2018-07-09T09:24:15.809Z,20.61
2018-07-09T09:26:08.660Z,20.83
2018-07-09T09:27:08.551Z,21.07
2018-07-09T09:29:01.408Z,20.77
2018-07-09T09:30:01.298Z,20.79
2018-07-09T09:31:54.204Z,21.07
2018-07-09T09:32:54.086Z,21.28
2018-07-09T09:34:46.893Z,21.38
2018-07-09T09:35:46.800Z,21.51
2018-07-09T09:37:40.094Z,21.81
2018-07-09T09:38:39.974Z,21.71
2018-07-09T09:40:32.828Z,21.30
2018-07-09T09:41:32.732Z,21.47
2018-07-09T09:43:25.578Z,21.58
2018-07-09T09:44:25.484Z,21.81
2018-07-09T09:46:18.308Z,21.78
2018-07-09T09:47:18.208Z,21.96
2018-07-09T09:49:11.076Z,22.33
2018-07-09T09:50:10.969Z,22.18
2018-07-09T09:52:04.317Z,22.22
2018-07-09T09:53:04.237Z,22.38
2018-07-09T09:54:57.085Z,22.53
2018-07-09T09:55:56.984Z,22.43
2018-07-09T09:57:49.817Z,22.37
2018-07-09T09:58:49.929Z,22.37
2018-07-09T10:00:42.627Z,22.33
2018-07-09T10:01:42.472Z,22.31
2018-07-09T10:03:35.342Z,22.33
2018-07-09T10:04:35.243Z,22.31
2018-07-09T10:06:28.058Z,22.55
2018-07-09T10:07:27.985Z,22.73
2018-07-09T10:09:20.927Z,23.03
2018-07-09T10:10:20.780Z,23.06
2018-07-09T10:12:13.600Z,22.73
2018-07-09T10:13:13.464Z,22.67
2018-07-09T10:15:06.320Z,22.95
2018-07-09T10:16:06.227Z,23.14
2018-07-09T10:17:59.061Z,23.25
2018-07-09T10:18:58.971Z,23.31
2018-07-09T10:20:51.841Z,23.07
2018-07-09T10:21:51.749Z,23.03
2018-07-09T10:23:44.595Z,22.88
2018-07-09T10:24:44.483Z,22.96
2018-07-09T10:26:37.343Z,22.71
2018-07-09T10:27:37.232Z,22.80
2018-07-09T10:29:30.078Z,22.88
2018-07-09T10:30:30.043Z,22.74
2018-07-09T10:32:22.818Z,23.13
2018-07-09T10:33:22.714Z,23.21
2018-07-09T10:35:15.586Z,23.31
2018-07-09T10:36:15.470Z,23.41
2018-07-09T10:38:08.337Z,23.42
2018-07-09T10:39:08.224Z,23.70
2018-07-09T10:41:01.109Z,23.79
2018-07-09T10:42:00.965Z,23.74
2018-07-09T10:43:53.804Z,23.81
2018-07-09T10:44:53.747Z,23.67
2018-07-09T10:46:46.582Z,23.60
2018-07-09T10:47:46.471Z,23.48
2018-07-09T10:49:39.325Z,23.59
2018-07-09T10:50:39.238Z,23.42
2018-07-09T10:52:32.068Z,23.26
2018-07-09T10:53:31.978Z,23.17
2018-07-09T10:55:24.824Z,23.29
2018-07-09T10:56:24.726Z,23.04
2018-07-09T10:58:18.070Z,22.76
2018-07-09T10:59:17.460Z,22.64
2018-07-09T11:01:10.912Z,22.43
2018-07-09T11:02:10.733Z,22.36
2018-07-09T11:04:03.570Z,22.22
2018-07-09T11:05:03.481Z,22.13
2018-07-09T11:06:56.331Z,22.04
2018-07-09T11:07:56.221Z,21.98
2018-07-09T11:09:49.072Z,21.75
2018-07-09T11:10:48.996Z,21.69
2018-07-09T11:12:41.829Z,21.74
2018-07-09T11:13:41.749Z,21.67
2018-07-09T11:15:34.635Z,21.56
2018-07-09T11:16:34.480Z,21.43
2018-07-09T11:18:27.360Z,21.43
2018-07-09T11:19:27.218Z,21.37
2018-07-09T11:21:20.079Z,21.45
2018-07-09T11:22:19.972Z,21.47
2018-07-09T11:24:12.820Z,21.32
2018-07-09T11:25:12.724Z,21.34
2018-07-09T11:27:05.610Z,21.14
2018-07-09T11:28:05.474Z,21.11
2018-07-09T11:29:58.342Z,21.20
2018-07-09T11:30:58.218Z,21.18
2018-07-09T11:32:51.073Z,21.32
2018-07-09T11:33:50.964Z,21.41
2018-07-09T11:35:43.828Z,21.41
2018-07-09T11:36:43.719Z,21.53
2018-07-09T11:38:36.577Z,21.81
2018-07-09T11:39:36.486Z,22.00
2018-07-09T11:41:29.341Z,22.34
2018-07-09T11:42:29.229Z,22.37
2018-07-09T11:44:22.058Z,22.22
2018-07-09T11:45:21.961Z,22.38
2018-07-09T11:47:14.827Z,22.46
2018-07-09T11:48:14.717Z,22.44
2018-07-09T11:50:07.559Z,22.43
2018-07-09T11:51:07.473Z,22.66
2018-07-09T11:53:00.364Z,23.04
2018-07-09T11:54:00.215Z,23.22
2018-07-09T11:55:53.053Z,23.07
2018-07-09T11:56:52.969Z,22.71
2018-07-09T11:58:45.866Z,22.99
2018-07-09T11:59:45.727Z,23.29
2018-07-09T12:01:40.488Z,23.37
2018-07-09T12:02:40.583Z,23.36
2018-07-09T12:04:34.557Z,23.42
2018-07-09T12:05:34.038Z,23.37
2018-07-09T12:07:26.870Z,23.23
2018-07-09T12:08:26.764Z,23.10
2018-07-09T12:10:19.570Z,22.52
2018-07-09T12:11:19.518Z,22.33
2018-07-09T12:13:12.341Z,22.04
2018-07-09T12:14:12.262Z,21.91
2018-07-09T12:16:05.108Z,21.84
2018-07-09T12:17:05.013Z,21.74
2018-07-09T12:18:59.273Z,21.69
2018-07-09T12:19:59.157Z,21.71
2018-07-09T12:21:52.021Z,21.67
2018-07-09T12:22:51.918Z,21.65
2018-07-09T12:24:44.768Z,21.60
2018-07-09T12:25:44.664Z,21.67
2018-07-09T12:27:37.506Z,21.56
2018-07-09T12:28:37.411Z,21.58
2018-07-09T12:30:30.267Z,21.45
2018-07-09T12:31:30.156Z,21.40
2018-07-09T12:33:23.550Z,21.47
2018-07-09T12:34:23.445Z,21.53
2018-07-09T12:36:16.377Z,21.41
2018-07-09T12:37:16.193Z,21.30
2018-07-09T12:39:09.065Z,21.20
2018-07-09T12:40:08.923Z,21.20
2018-07-09T12:42:01.848Z,21.05
2018-07-09T12:43:01.669Z,21.08
2018-07-09T12:44:54.523Z,21.23
2018-07-09T12:45:54.435Z,21.32
2018-07-09T12:47:47.272Z,21.67
2018-07-09T12:48:47.186Z,21.88
2018-07-09T12:50:40.023Z,22.07
2018-07-09T12:51:39.912Z,22.25
2018-07-09T12:53:32.785Z,22.76
2018-07-09T12:54:32.670Z,23.04
2018-07-09T12:56:25.511Z,23.10
2018-07-09T12:57:25.414Z,23.04
2018-07-09T12:59:18.784Z,22.95
2018-07-09T13:00:18.166Z,22.58
2018-07-09T13:02:11.016Z,22.27
2018-07-09T13:03:10.949Z,22.15
2018-07-09T13:05:03.767Z,21.90
2018-07-09T13:06:03.667Z,21.80
2018-07-09T13:07:56.568Z,21.65
2018-07-09T13:08:56.423Z,21.55
2018-07-09T13:10:49.286Z,21.23
2018-07-09T13:11:49.210Z,21.20
2018-07-09T13:13:42.060Z,20.90
2018-07-09T13:14:41.980Z,20.88
2018-07-09T13:16:34.770Z,20.65
2018-07-09T13:17:34.665Z,20.61
2018-07-09T13:19:27.551Z,20.63
2018-07-09T13:20:27.417Z,20.55
2018-07-09T13:22:20.268Z,20.49
2018-07-09T13:23:20.158Z,20.42
2018-07-09T13:25:13.017Z,20.42
2018-07-09T13:26:12.911Z,20.37
2018-07-09T13:28:05.767Z,20.49
2018-07-09T13:29:05.658Z,20.50
2018-07-09T13:30:58.566Z,20.60
2018-07-09T13:31:58.464Z,20.65
2018-07-09T13:33:51.253Z,20.65
2018-07-09T13:34:51.163Z,20.65
2018-07-09T13:36:44.020Z,20.79
2018-07-09T13:37:43.906Z,20.80
2018-07-09T13:39:36.751Z,20.86
2018-07-09T13:40:36.690Z,20.89
2018-07-09T13:42:29.525Z,21.04
2018-07-09T13:43:29.405Z,21.18
2018-07-09T13:45:22.262Z,21.32
2018-07-09T13:46:22.160Z,21.43
2018-07-09T13:48:15.032Z,21.58
2018-07-09T13:49:14.913Z,21.69
2018-07-09T13:51:07.774Z,22.07
2018-07-09T13:52:07.667Z,22.23
2018-07-09T13:54:00.525Z,22.37
2018-07-09T13:55:00.436Z,22.22
2018-07-09T13:56:53.302Z,22.37
2018-07-09T13:57:53.181Z,22.37
2018-07-09T13:59:46.167Z,22.67
2018-07-09T14:00:45.941Z,22.51
2018-07-09T14:02:38.948Z,22.62
2018-07-09T14:03:38.672Z,22.74
2018-07-09T14:05:31.550Z,23.13
2018-07-09T14:06:31.436Z,23.51
2018-07-09T14:08:24.280Z,24.03
2018-07-09T14:09:24.173Z,24.00
2018-07-09T14:11:17.026Z,23.59
2018-07-09T14:12:16.935Z,23.52
2018-07-09T14:14:11.225Z,23.14
2018-07-09T14:15:11.111Z,23.13
2018-07-09T14:17:04.011Z,23.37
2018-07-09T14:18:03.846Z,23.33
2018-07-09T14:19:56.753Z,23.18
2018-07-09T14:20:56.637Z,23.54
2018-07-09T14:22:49.449Z,23.63
2018-07-09T14:23:49.357Z,23.70
2018-07-09T14:25:42.220Z,23.49
2018-07-09T14:26:42.100Z,23.25
2018-07-09T14:28:35.383Z,23.11
2018-07-09T14:29:35.280Z,23.21
2018-07-09T14:31:29.140Z,23.39
2018-07-09T14:32:28.507Z,23.60
2018-07-09T14:34:21.523Z,23.76
2018-07-09T14:35:21.285Z,23.92
2018-07-09T14:37:14.164Z,23.78
2018-07-09T14:38:14.877Z,23.56
2018-07-09T14:40:11.200Z,23.33
2018-07-09T14:41:10.438Z,23.29
2018-07-09T14:43:04.768Z,23.52
2018-07-09T14:44:04.664Z,23.73
2018-07-09T14:45:57.524Z,24.00
2018-07-09T14:46:57.406Z,23.94
2018-07-09T14:48:50.249Z,23.85
2018-07-09T14:49:51.147Z,23.45
2018-07-09T14:51:43.046Z,23.33
2018-07-09T14:52:42.906Z,23.22
2018-07-09T14:54:35.746Z,22.96
2018-07-09T14:55:35.808Z,23.04
2018-07-09T14:57:28.504Z,22.73
2018-07-09T14:58:28.373Z,22.89
2018-07-09T15:00:21.245Z,22.83
2018-07-09T15:01:21.153Z,23.15
2018-07-09T15:03:13.974Z,23.70
2018-07-09T15:04:13.961Z,24.03
2018-07-09T15:06:06.747Z,24.56
2018-07-09T15:07:06.625Z,24.38
2018-07-09T15:08:59.475Z,24.33
2018-07-09T15:09:59.385Z,24.33
2018-07-09T15:11:52.216Z,24.31
2018-07-09T15:12:52.135Z,24.15
2018-07-09T15:14:44.998Z,23.74
2018-07-09T15:15:44.884Z,23.51
2018-07-09T15:17:37.711Z,23.59
2018-07-09T15:18:37.630Z,23.76
2018-07-09T15:20:30.492Z,23.89
2018-07-09T15:21:30.372Z,23.94
2018-07-09T15:23:23.254Z,23.94
2018-07-09T15:24:23.316Z,23.76
2018-07-09T15:26:17.074Z,23.85
2018-07-09T15:27:15.889Z,23.70
2018-07-09T15:29:08.717Z,23.42
2018-07-09T15:30:08.621Z,23.33
2018-07-09T15:32:01.481Z,23.44
2018-07-09T15:33:01.430Z,23.56
2018-07-09T15:34:54.247Z,23.73
2018-07-09T15:35:54.152Z,23.71
2018-07-09T15:37:46.981Z,24.00
2018-07-09T15:38:46.875Z,23.97
2018-07-09T15:40:39.719Z,24.25
2018-07-09T15:41:39.653Z,24.22
2018-07-09T15:43:33.429Z,23.97
2018-07-09T15:44:33.305Z,23.89
2018-07-09T15:46:26.213Z,23.85
2018-07-09T15:47:26.043Z,23.64
2018-07-09T15:49:18.882Z,23.34
2018-07-09T15:50:18.812Z,23.03
2018-07-09T15:52:12.213Z,23.04
2018-07-09T15:53:12.057Z,22.99
2018-07-09T15:55:04.909Z,22.88
2018-07-09T15:56:04.810Z,22.80
2018-07-09T15:57:57.787Z,22.77
2018-07-09T15:58:57.547Z,22.74
2018-07-09T16:00:50.393Z,22.81
2018-07-09T16:01:50.316Z,22.74
2018-07-09T16:03:43.156Z,22.74
2018-07-09T16:04:43.110Z,22.74
2018-07-09T16:06:35.896Z,22.56
2018-07-09T16:07:35.816Z,22.52
2018-07-09T16:09:28.642Z,22.52
2018-07-09T16:10:28.609Z,22.64
2018-07-09T16:12:21.415Z,22.66
2018-07-09T16:13:21.291Z,22.77
2018-07-09T16:15:14.159Z,22.85
2018-07-09T16:16:14.043Z,22.70
2018-07-09T16:18:06.915Z,22.59
2018-07-09T16:19:06.792Z,22.64
2018-07-09T16:20:59.655Z,22.48
2018-07-09T16:21:59.547Z,22.48
2018-07-09T16:23:55.572Z,22.49
2018-07-09T16:24:55.373Z,22.48
2018-07-09T16:26:49.306Z,22.49
2018-07-09T16:27:48.143Z,22.43
2018-07-09T16:29:41.478Z,22.37
2018-07-09T16:30:40.914Z,22.40
2018-07-09T16:32:34.243Z,22.33
2018-07-09T16:33:34.125Z,22.31
2018-07-09T16:35:26.972Z,22.18
2018-07-09T16:36:26.978Z,22.25
2018-07-09T16:38:19.746Z,22.09
2018-07-09T16:39:19.644Z,22.07
2018-07-09T16:41:12.492Z,22.04
2018-07-09T16:42:13.077Z,22.11
2018-07-09T16:44:05.366Z,22.15
2018-07-09T16:45:05.162Z,22.11
2018-07-09T16:46:58.002Z,22.11
2018-07-09T16:47:57.882Z,22.07
2018-07-09T16:49:50.721Z,21.90
2018-07-09T16:50:50.645Z,21.84
2018-07-09T16:52:43.517Z,21.85
2018-07-09T16:53:43.378Z,21.75
2018-07-09T16:55:36.264Z,21.80
2018-07-09T16:56:36.129Z,21.67
2018-07-09T16:58:28.980Z,21.60
2018-07-09T16:59:28.866Z,21.69
2018-07-09T17:01:21.709Z,21.69
2018-07-09T17:02:21.638Z,21.59
2018-07-09T17:04:14.574Z,21.53
2018-07-09T17:05:14.387Z,21.51
2018-07-09T17:07:07.224Z,21.43
2018-07-09T17:08:07.121Z,21.41
2018-07-09T17:09:59.996Z,21.41
2018-07-09T17:10:59.870Z,21.37
2018-07-09T17:12:52.718Z,21.22
2018-07-09T17:13:52.726Z,21.18
2018-07-09T17:15:45.499Z,21.07
2018-07-09T17:16:45.371Z,21.14
2018-07-09T17:18:38.226Z,21.05
2018-07-09T17:19:38.129Z,20.98
2018-07-09T17:21:30.975Z,20.86
2018-07-09T17:22:30.867Z,20.93
2018-07-09T17:24:23.768Z,20.86
2018-07-09T17:25:23.747Z,20.85
2018-07-09T17:27:16.676Z,20.86
2018-07-09T17:28:16.395Z,20.89
2018-07-09T17:30:09.261Z,20.90
2018-07-09T17:31:09.123Z,20.86
2018-07-09T17:33:01.977Z,20.82
2018-07-09T17:34:01.867Z,20.77
2018-07-09T17:35:54.942Z,20.70
2018-07-09T17:36:54.623Z,20.71
2018-07-09T17:38:47.480Z,20.67
2018-07-09T17:39:47.379Z,20.74
2018-07-09T17:41:40.272Z,20.61
2018-07-09T17:42:40.246Z,20.49
2018-07-09T17:44:33.022Z,20.41
2018-07-09T17:45:33.029Z,20.46
2018-07-09T17:47:25.756Z,20.30
2018-07-09T17:48:25.614Z,20.26
2018-07-09T17:50:18.697Z,20.32
2018-07-09T17:51:18.375Z,20.27
2018-07-09T17:53:11.322Z,20.30
2018-07-09T17:54:11.121Z,20.26
2018-07-09T17:56:03.977Z,20.17
2018-07-09T17:57:03.874Z,20.18
2018-07-09T17:58:56.742Z,20.17
2018-07-09T17:59:56.621Z,20.17
2018-07-09T18:01:49.505Z,20.14
2018-07-09T18:02:49.360Z,20.09
2018-07-09T18:04:42.767Z,20.09
2018-07-09T18:05:42.630Z,20.04
2018-07-09T18:07:35.493Z,20.14
2018-07-09T18:08:35.375Z,20.02
2018-07-09T18:10:28.255Z,20.05
2018-07-09T18:11:28.125Z,19.90
2018-07-09T18:13:20.964Z,19.79
2018-07-09T18:14:20.863Z,19.86
2018-07-09T18:16:13.725Z,19.72
2018-07-09T18:17:13.623Z,19.82
2018-07-09T18:19:06.495Z,19.74
2018-07-09T18:20:06.375Z,19.74
2018-07-09T18:21:59.223Z,19.67
2018-07-09T18:22:59.118Z,19.70
2018-07-09T18:24:51.974Z,19.59
2018-07-09T18:25:51.864Z,19.59
2018-07-09T18:27:44.725Z,19.56
2018-07-09T18:28:44.638Z,19.59
2018-07-09T18:30:37.565Z,19.50
2018-07-09T18:31:37.464Z,19.56
2018-07-09T18:33:30.229Z,19.57